Terminal Aerodrome Forecast
Issued by NWS

Home | Current Version | Previous Version | Graphics & Text | Print | Product List | Glossary On
Versions: 1 2 3 4 5 6 7 8 9 10 11 12 13 14 15 16 17 18 19 20
000
FTUS43 KGRB 141735
TAFATW
TAF
KATW 141735Z 1418/1518 07012G21KT P6SM SHRA SCT013 BKN035
      TEMPO 1418/1420 -SHRA BKN013 OVC035
     FM142000 07011G19KT 4SM SHRA OVC006
     FM142200 03010G15KT 2SM SHRA OVC003
     FM151000 34014G24KT 4SM -SHRA OVC007
     FM151200 33016G27KT P6SM -SHRA OVC014
     FM151600 33017G28KT P6SM -SHRA BKN040=

USA.gov is the U.S. government's official web portal to all federal, state and local government web resources and services.